createdAt,value
2022-11-17T00:02:11.639Z,16.23
2022-11-17T00:04:40.244Z,13.80
2022-11-17T00:07:09.383Z,12.93
2022-11-17T00:09:37.941Z,9.90
2022-11-17T00:12:28.485Z,13.50
2022-11-17T00:15:01.205Z,9.37
2022-11-17T00:17:31.157Z,11.50
2022-11-17T00:20:17.255Z,12.63
2022-11-17T00:22:45.878Z,13.77
2022-11-17T00:25:14.496Z,11.73
2022-11-17T00:27:43.106Z,8.27
2022-11-17T00:30:32.495Z,12.53
2022-11-17T00:33:21.021Z,12.53
2022-11-17T00:35:53.025Z,10.63
2022-11-17T00:38:21.836Z,13.43
2022-11-17T00:40:50.409Z,9.77
2022-11-17T00:43:19.060Z,10.83
2022-11-17T00:45:47.703Z,8.60
2022-11-17T00:48:17.655Z,11.90
2022-11-17T00:50:46.267Z,8.80
2022-11-17T00:53:14.848Z,10.13
2022-11-17T00:55:43.745Z,12.57
2022-11-17T00:58:12.362Z,15.70
2022-11-17T01:00:40.965Z,14.07
2022-11-17T01:03:09.585Z,11.13
2022-11-17T01:05:39.524Z,12.10
2022-11-17T01:08:08.136Z,17.00
2022-11-17T01:10:36.927Z,13.33
2022-11-17T01:13:05.501Z,11.30
2022-11-17T01:15:34.989Z,13.83
2022-11-17T01:18:03.676Z,15.43
2022-11-17T01:20:32.300Z,12.10
2022-11-17T01:23:02.244Z,13.67
2022-11-17T01:25:31.936Z,13.10
2022-11-17T01:28:00.573Z,12.80
2022-11-17T01:30:29.198Z,15.40
2022-11-17T01:32:57.824Z,15.63
2022-11-17T01:35:26.431Z,10.93
2022-11-17T01:37:55.050Z,10.13
2022-11-17T01:40:25.011Z,10.67
2022-11-17T01:42:53.611Z,9.03
2022-11-17T01:45:22.782Z,7.30
2022-11-17T01:47:53.797Z,8.20
2022-11-17T01:50:28.049Z,7.90
2022-11-17T01:52:59.587Z,11.90
2022-11-17T01:55:34.631Z,11.03
2022-11-17T01:58:07.762Z,12.60
2022-11-17T02:00:36.451Z,10.10
2022-11-17T02:03:07.275Z,6.13
2022-11-17T02:05:42.679Z,10.27
2022-11-17T02:08:12.239Z,10.47
2022-11-17T02:10:47.129Z,7.93
2022-11-17T02:13:19.174Z,13.40
2022-11-17T02:15:47.963Z,9.03
2022-11-17T02:18:17.171Z,7.90
2022-11-17T02:20:54.127Z,9.63
2022-11-17T02:23:44.591Z,12.80
2022-11-17T02:26:41.028Z,6.60
2022-11-17T02:29:16.123Z,9.00
2022-11-17T02:31:50.302Z,9.40
2022-11-17T02:34:27.340Z,13.73
2022-11-17T02:36:58.840Z,6.33
2022-11-17T02:39:30.973Z,8.93
2022-11-17T02:42:05.607Z,7.10
2022-11-17T02:44:39.764Z,7.40
2022-11-17T02:47:11.100Z,7.13
2022-11-17T02:49:42.427Z,6.40
2022-11-17T02:52:11.585Z,8.50
2022-11-17T02:54:40.166Z,8.37
2022-11-17T02:57:29.824Z,7.30
2022-11-17T03:00:04.811Z,7.20
2022-11-17T03:02:42.369Z,6.50
2022-11-17T03:05:14.754Z,8.53
2022-11-17T03:07:58.380Z,7.10
2022-11-17T03:10:30.034Z,6.20
2022-11-17T03:13:02.914Z,12.07
2022-11-17T03:15:38.880Z,6.57
2022-11-17T03:18:11.923Z,4.87
2022-11-17T03:20:43.175Z,7.00
2022-11-17T03:23:15.164Z,6.23
2022-11-17T03:25:46.227Z,6.73
2022-11-17T03:28:16.841Z,5.63
2022-11-17T03:30:47.808Z,5.07
2022-11-17T03:33:19.027Z,4.70
2022-11-17T03:35:51.069Z,7.60
2022-11-17T03:38:21.843Z,5.30
2022-11-17T03:40:51.655Z,11.60
2022-11-17T03:43:21.911Z,8.20
2022-11-17T03:45:54.475Z,5.20
2022-11-17T03:48:27.376Z,6.30
2022-11-17T03:51:00.144Z,12.13
2022-11-17T03:53:30.596Z,9.63
2022-11-17T03:56:04.229Z,6.83
2022-11-17T03:58:35.118Z,4.60
2022-11-17T04:01:06.472Z,5.00
2022-11-17T04:03:35.623Z,7.27
2022-11-17T04:06:04.516Z,4.70
2022-11-17T04:08:33.125Z,7.93
2022-11-17T04:11:19.450Z,6.30
2022-11-17T04:14:05.483Z,9.10
2022-11-17T04:16:35.440Z,4.30
2022-11-17T04:19:04.069Z,5.93
2022-11-17T04:21:32.717Z,7.73
2022-11-17T04:24:01.436Z,5.00
2022-11-17T04:26:47.445Z,7.03
2022-11-17T04:29:17.535Z,5.00
2022-11-17T04:31:47.494Z,8.37
2022-11-17T04:34:16.096Z,4.23
2022-11-17T04:36:44.695Z,7.03
2022-11-17T04:39:14.987Z,4.87
2022-11-17T04:41:56.838Z,7.83
2022-11-17T04:44:26.372Z,6.23
2022-11-17T04:46:56.871Z,4.37
2022-11-17T04:49:27.115Z,5.40
2022-11-17T04:51:56.120Z,10.73
2022-11-17T04:54:25.900Z,5.60
2022-11-17T04:56:55.765Z,7.90
2022-11-17T04:59:24.702Z,7.17
2022-11-17T05:01:53.355Z,7.50
2022-11-17T05:04:41.118Z,10.63
2022-11-17T05:07:10.339Z,7.13
2022-11-17T05:09:38.977Z,10.30
2022-11-17T05:12:27.136Z,8.97
2022-11-17T05:14:55.719Z,6.63
2022-11-17T05:17:23.310Z,5.70
2022-11-17T05:19:53.267Z,10.63
2022-11-17T05:22:41.771Z,4.40
2022-11-17T05:25:10.736Z,4.20
2022-11-17T05:27:39.335Z,6.73
2022-11-17T05:30:09.538Z,7.10
2022-11-17T05:32:38.447Z,6.23
2022-11-17T05:35:09.412Z,9.50
2022-11-17T05:37:38.009Z,5.90
2022-11-17T05:40:07.981Z,9.10
2022-11-17T05:42:36.581Z,4.63
2022-11-17T05:45:05.811Z,6.53
2022-11-17T05:47:34.426Z,6.60
2022-11-17T05:50:03.045Z,6.17
2022-11-17T05:52:33.089Z,6.70
2022-11-17T05:55:01.710Z,8.27
2022-11-17T05:57:32.113Z,10.90
2022-11-17T06:00:04.479Z,9.83
2022-11-17T06:02:34.991Z,6.07
2022-11-17T06:05:04.513Z,9.00
2022-11-17T06:07:35.747Z,7.83
2022-11-17T06:10:04.916Z,6.80
2022-11-17T06:12:33.535Z,7.40
2022-11-17T06:15:02.181Z,7.50
2022-11-17T06:17:32.500Z,13.23
2022-11-17T06:20:03.720Z,7.27
2022-11-17T06:22:34.156Z,5.83
2022-11-17T06:25:04.868Z,9.03
2022-11-17T06:27:33.819Z,6.40
2022-11-17T06:30:03.969Z,5.87
2022-11-17T06:32:34.316Z,9.43
2022-11-17T06:35:05.016Z,11.37
2022-11-17T06:37:35.058Z,7.00
2022-11-17T06:40:04.106Z,9.80
2022-11-17T06:42:50.346Z,10.53
2022-11-17T06:45:18.920Z,9.47
2022-11-17T06:47:47.530Z,8.57
2022-11-17T06:50:16.262Z,14.30
2022-11-17T06:52:46.297Z,10.97
2022-11-17T06:55:15.104Z,10.77
2022-11-17T06:57:46.599Z,10.13
2022-11-17T07:00:20.058Z,14.53
2022-11-17T07:02:48.636Z,14.20
2022-11-17T07:05:17.551Z,9.20
2022-11-17T07:07:47.615Z,10.53
2022-11-17T07:10:16.361Z,12.03
2022-11-17T07:12:46.959Z,12.17
2022-11-17T07:15:15.787Z,10.30
2022-11-17T07:17:44.503Z,30.17
2022-11-17T07:20:13.761Z,7.33
2022-11-17T07:22:42.586Z,6.93
2022-11-17T07:25:14.556Z,7.63
2022-11-17T07:27:44.834Z,4.73
2022-11-17T07:30:14.894Z,6.50
2022-11-17T07:32:43.627Z,5.23
2022-11-17T07:35:12.346Z,5.00
2022-11-17T07:37:41.036Z,5.47
2022-11-17T07:40:12.674Z,7.00
2022-11-17T07:42:41.384Z,6.50
2022-11-17T07:45:10.915Z,6.63
2022-11-17T07:47:39.603Z,6.70
2022-11-17T07:50:09.196Z,8.43
2022-11-17T07:52:41.421Z,5.00
2022-11-17T07:55:12.126Z,5.50
2022-11-17T07:57:40.837Z,6.67
2022-11-17T08:00:10.554Z,6.57
2022-11-17T08:02:39.263Z,6.67
2022-11-17T08:05:08.674Z,9.07
2022-11-17T08:07:37.652Z,15.60
2022-11-17T08:10:07.477Z,6.00
2022-11-17T08:12:37.538Z,6.40
2022-11-17T08:15:07.581Z,6.03
2022-11-17T08:17:36.962Z,6.10
2022-11-17T08:20:06.144Z,5.87
2022-11-17T08:22:34.880Z,5.73
2022-11-17T08:25:03.908Z,2.03
2022-11-17T08:27:33.681Z,3.83
2022-11-17T08:30:03.876Z,3.43
2022-11-17T08:32:32.605Z,2.27
2022-11-17T08:35:01.295Z,1.83
2022-11-17T08:37:29.939Z,2.60
2022-11-17T08:39:58.661Z,3.20
2022-11-17T08:42:27.412Z,1.80
2022-11-17T08:44:56.092Z,3.20
2022-11-17T08:47:26.217Z,1.83
2022-11-17T08:49:54.995Z,3.80
2022-11-17T08:52:23.769Z,2.83
2022-11-17T08:54:52.582Z,1.73
2022-11-17T08:57:21.968Z,1.60
2022-11-17T08:59:50.904Z,4.83
2022-11-17T09:02:19.767Z,5.63
2022-11-17T09:04:50.619Z,1.93
2022-11-17T09:07:19.397Z,3.23
2022-11-17T09:09:48.620Z,1.70
2022-11-17T09:12:17.946Z,2.60
2022-11-17T09:14:46.634Z,1.70
2022-11-17T09:17:15.324Z,1.40
2022-11-17T09:19:44.049Z,1.13
2022-11-17T09:22:14.115Z,1.60
2022-11-17T09:24:42.763Z,2.37
2022-11-17T09:27:11.456Z,2.73
2022-11-17T09:29:40.158Z,1.97
2022-11-17T09:32:08.831Z,2.23
2022-11-17T09:34:37.661Z,3.60
2022-11-17T09:37:06.379Z,1.43
2022-11-17T09:39:36.390Z,1.20
2022-11-17T09:42:05.531Z,1.80
2022-11-17T09:44:39.818Z,1.87
2022-11-17T09:47:19.515Z,1.60
2022-11-17T09:49:58.350Z,1.27
2022-11-17T09:52:30.788Z,1.93
2022-11-17T09:55:02.532Z,1.40
2022-11-17T09:57:35.969Z,1.40
2022-11-17T10:00:08.660Z,1.53
2022-11-17T10:02:37.321Z,4.00
2022-11-17T10:05:06.753Z,2.10
2022-11-17T10:07:35.869Z,2.00
2022-11-17T10:10:07.482Z,5.20
2022-11-17T10:12:39.910Z,1.80
2022-11-17T10:15:21.930Z,2.27
2022-11-17T10:17:51.735Z,1.73
2022-11-17T10:20:20.680Z,2.43
2022-11-17T10:22:49.846Z,5.03
2022-11-17T10:25:37.776Z,1.10
2022-11-17T10:28:08.588Z,6.67
2022-11-17T10:30:37.300Z,3.53
2022-11-17T10:33:05.946Z,3.23
2022-11-17T10:35:36.124Z,2.37
2022-11-17T10:38:06.851Z,2.57
2022-11-17T10:40:47.941Z,2.80
2022-11-17T10:43:24.379Z,2.83
2022-11-17T10:45:55.218Z,2.10
2022-11-17T10:48:31.239Z,2.00
2022-11-17T10:51:00.992Z,2.47
2022-11-17T10:53:43.029Z,15.57
2022-11-17T10:56:18.447Z,4.97
2022-11-17T10:59:00.795Z,2.10
2022-11-17T11:01:31.269Z,8.83
2022-11-17T11:04:00.054Z,4.10
2022-11-17T11:06:30.497Z,9.20
2022-11-17T11:09:02.170Z,2.07
2022-11-17T11:11:39.270Z,3.50
2022-11-17T11:14:14.749Z,2.50
2022-11-17T11:16:48.033Z,3.53
2022-11-17T11:19:18.715Z,10.13
2022-11-17T11:22:14.685Z,3.60
2022-11-17T11:24:52.494Z,2.27
2022-11-17T11:27:33.365Z,4.30
2022-11-17T11:30:05.341Z,4.83
2022-11-17T11:32:42.380Z,7.97
2022-11-17T11:35:40.443Z,3.57
2022-11-17T11:38:17.508Z,3.83
2022-11-17T11:40:56.216Z,4.33
2022-11-17T11:43:34.078Z,7.57
2022-11-17T11:46:09.134Z,5.03
2022-11-17T11:48:38.142Z,6.00
2022-11-17T11:51:12.701Z,6.40
2022-11-17T11:53:47.518Z,2.60
2022-11-17T11:56:19.102Z,6.33
2022-11-17T11:58:58.213Z,6.30
2022-11-17T12:01:27.629Z,8.60
2022-11-17T12:04:07.376Z,11.10
2022-11-17T12:06:41.175Z,10.00
2022-11-17T12:09:40.155Z,5.20
2022-11-17T12:12:10.226Z,4.83
2022-11-17T12:14:41.214Z,9.17
2022-11-17T12:17:23.176Z,4.33
2022-11-17T12:19:57.217Z,7.27
2022-11-17T12:23:00.577Z,11.23
2022-11-17T12:25:30.449Z,3.27
2022-11-17T12:27:59.146Z,9.40
2022-11-17T12:30:53.628Z,12.10
2022-11-17T12:33:23.745Z,6.03
2022-11-17T12:36:18.590Z,2.73
2022-11-17T12:38:47.370Z,5.53
2022-11-17T12:41:16.046Z,5.00
2022-11-17T12:43:44.710Z,5.03
2022-11-17T12:46:31.521Z,3.63
2022-11-17T12:49:07.953Z,6.27
2022-11-17T12:51:40.913Z,7.80
2022-11-17T12:54:20.896Z,5.00
2022-11-17T12:56:58.324Z,9.50
2022-11-17T12:59:51.874Z,7.47
2022-11-17T13:02:31.970Z,4.40
2022-11-17T13:05:04.486Z,5.67
2022-11-17T13:07:33.139Z,9.50
2022-11-17T13:10:02.699Z,7.63
2022-11-17T13:12:33.053Z,10.67
2022-11-17T13:15:03.612Z,6.47
2022-11-17T13:17:34.782Z,7.37
2022-11-17T13:20:05.063Z,3.70
2022-11-17T13:22:36.498Z,8.13
2022-11-17T13:25:22.804Z,6.67
2022-11-17T13:27:56.223Z,8.83
2022-11-17T13:30:29.626Z,6.70
2022-11-17T13:33:02.633Z,6.37
2022-11-17T13:35:32.957Z,6.43
2022-11-17T13:38:03.260Z,6.40
2022-11-17T13:40:32.660Z,6.07
2022-11-17T13:43:02.092Z,4.77
2022-11-17T13:45:30.822Z,4.50
2022-11-17T13:48:00.775Z,7.53
2022-11-17T13:50:38.155Z,9.00
2022-11-17T13:53:19.410Z,8.37
2022-11-17T13:55:48.201Z,9.83
2022-11-17T13:58:36.150Z,10.47
2022-11-17T14:01:05.142Z,16.87
2022-11-17T14:03:37.443Z,5.17
2022-11-17T14:06:08.256Z,15.17
2022-11-17T14:08:38.304Z,6.47
2022-11-17T14:11:09.243Z,11.17
2022-11-17T14:13:39.675Z,6.70
2022-11-17T14:16:20.742Z,4.93
2022-11-17T14:19:01.854Z,7.40
2022-11-17T14:21:30.845Z,7.77
2022-11-17T14:24:05.617Z,5.90
2022-11-17T14:26:34.559Z,12.37
2022-11-17T14:29:03.230Z,10.37
2022-11-17T14:31:32.149Z,14.60
2022-11-17T14:34:02.215Z,9.30
2022-11-17T14:36:32.768Z,8.33
2022-11-17T14:39:02.184Z,8.10
2022-11-17T14:41:30.859Z,9.57
2022-11-17T14:43:59.531Z,11.37
2022-11-17T14:46:28.479Z,7.20
2022-11-17T14:48:57.089Z,7.97
2022-11-17T14:51:27.260Z,6.23
2022-11-17T14:53:55.924Z,5.80
2022-11-17T14:56:25.488Z,13.40
2022-11-17T14:58:57.235Z,10.63
2022-11-17T15:01:28.735Z,19.47
2022-11-17T15:03:58.585Z,11.97
2022-11-17T15:06:29.026Z,9.90
2022-11-17T15:08:59.078Z,6.83
2022-11-17T15:11:29.251Z,12.10
2022-11-17T15:14:02.417Z,12.27
2022-11-17T15:16:31.046Z,10.83
2022-11-17T15:19:00.039Z,9.60
2022-11-17T15:21:30.001Z,9.67
2022-11-17T15:23:58.719Z,11.27
2022-11-17T15:26:27.367Z,3.03
2022-11-17T15:28:57.728Z,10.53
2022-11-17T15:31:26.463Z,9.70
2022-11-17T15:33:55.114Z,7.00
2022-11-17T15:36:24.191Z,8.17
2022-11-17T15:38:54.296Z,9.23
2022-11-17T15:41:23.001Z,12.80
2022-11-17T15:43:51.713Z,9.20
2022-11-17T15:46:20.416Z,6.43
2022-11-17T15:48:52.413Z,14.23
2022-11-17T15:51:22.207Z,12.40
2022-11-17T15:53:52.150Z,14.13
2022-11-17T15:56:24.368Z,11.53
2022-11-17T15:58:56.469Z,19.13
2022-11-17T16:01:29.543Z,10.30
2022-11-17T16:03:59.687Z,12.87
2022-11-17T16:06:28.719Z,11.77
2022-11-17T16:08:57.684Z,13.30
2022-11-17T16:11:27.928Z,16.20
2022-11-17T16:13:57.650Z,14.47
2022-11-17T16:16:27.718Z,16.60
2022-11-17T16:18:56.510Z,18.30
2022-11-17T16:21:25.649Z,13.50
2022-11-17T16:23:55.920Z,18.00
2022-11-17T16:26:27.054Z,16.13
2022-11-17T16:28:59.232Z,15.20
2022-11-17T16:31:29.459Z,14.10
2022-11-17T16:34:00.366Z,19.77
2022-11-17T16:36:36.282Z,11.13
2022-11-17T16:39:08.442Z,14.80
2022-11-17T16:41:40.266Z,11.87
2022-11-17T16:44:11.767Z,19.10
2022-11-17T16:46:42.549Z,12.90
2022-11-17T16:49:13.202Z,18.53
2022-11-17T16:51:42.264Z,23.93
2022-11-17T16:54:12.699Z,29.33
2022-11-17T16:56:42.752Z,20.20
2022-11-17T16:59:11.638Z,26.33
2022-11-17T17:01:40.379Z,21.40
2022-11-17T17:04:10.310Z,14.43
2022-11-17T17:06:41.410Z,16.90
2022-11-17T17:09:12.263Z,23.13
2022-11-17T17:11:42.420Z,16.57
2022-11-17T17:14:13.889Z,15.57
2022-11-17T17:16:43.119Z,15.13
2022-11-17T17:19:13.971Z,15.70
2022-11-17T17:21:44.044Z,13.83
2022-11-17T17:24:12.758Z,16.60
2022-11-17T17:26:43.021Z,23.13
2022-11-17T17:29:12.410Z,12.87
2022-11-17T17:31:42.516Z,21.53
2022-11-17T17:34:12.643Z,17.03
2022-11-17T17:36:41.301Z,17.30
2022-11-17T17:39:15.512Z,17.37
2022-11-17T17:41:46.002Z,15.30
2022-11-17T17:44:16.808Z,20.37
2022-11-17T17:46:46.026Z,18.87
2022-11-17T17:49:15.168Z,12.73
2022-11-17T17:51:45.095Z,14.70
2022-11-17T17:54:19.121Z,23.00
2022-11-17T17:56:49.242Z,18.97
2022-11-17T17:59:18.992Z,17.77
2022-11-17T18:01:48.080Z,26.17
2022-11-17T18:04:17.327Z,14.10
2022-11-17T18:06:47.911Z,25.43
2022-11-17T18:09:19.547Z,24.80
2022-11-17T18:11:51.402Z,13.47
2022-11-17T18:14:24.155Z,19.33
2022-11-17T18:16:53.720Z,17.20
2022-11-17T18:19:25.741Z,18.77
2022-11-17T18:21:57.015Z,25.83
2022-11-17T18:24:26.104Z,16.47
2022-11-17T18:26:56.146Z,14.60
2022-11-17T18:29:24.880Z,16.90
2022-11-17T18:31:53.520Z,14.70
2022-11-17T18:34:23.530Z,16.80
2022-11-17T18:36:53.210Z,18.53
2022-11-17T18:39:22.015Z,17.27
2022-11-17T18:41:50.750Z,20.20
2022-11-17T18:44:20.726Z,21.23
2022-11-17T18:46:49.453Z,20.20
2022-11-17T18:49:18.397Z,14.63
2022-11-17T18:51:47.310Z,13.57
2022-11-17T18:54:16.100Z,21.23
2022-11-17T18:56:45.294Z,15.30
2022-11-17T18:59:14.343Z,14.10
2022-11-17T19:01:45.304Z,15.70
2022-11-17T19:04:15.216Z,17.47
2022-11-17T19:06:43.839Z,11.13
2022-11-17T19:09:13.514Z,19.53
2022-11-17T19:11:42.391Z,13.50
2022-11-17T19:14:11.099Z,27.10
2022-11-17T19:16:44.578Z,12.50
2022-11-17T19:19:15.655Z,10.17
2022-11-17T19:21:44.590Z,13.77
2022-11-17T19:24:13.352Z,8.77
2022-11-17T19:26:42.785Z,9.00
2022-11-17T19:29:17.295Z,6.83
2022-11-17T19:31:46.633Z,10.80
2022-11-17T19:34:16.876Z,5.43
2022-11-17T19:36:45.529Z,3.60
2022-11-17T19:39:15.281Z,3.40
2022-11-17T19:41:45.011Z,3.80
2022-11-17T19:44:13.935Z,2.60
2022-11-17T19:46:43.649Z,3.67
2022-11-17T19:49:12.457Z,3.47
2022-11-17T19:51:42.450Z,2.60
2022-11-17T19:54:13.528Z,3.03
2022-11-17T19:56:42.129Z,1.73
2022-11-17T19:59:15.658Z,2.97
2022-11-17T20:01:46.162Z,4.60
2022-11-17T20:04:14.972Z,1.63
2022-11-17T20:06:44.896Z,1.90
2022-11-17T20:09:14.878Z,1.57
2022-11-17T20:11:44.975Z,1.30
2022-11-17T20:14:14.388Z,2.40
2022-11-17T20:16:43.161Z,1.20
2022-11-17T20:19:12.197Z,2.10
2022-11-17T20:21:41.641Z,2.33
2022-11-17T20:24:11.750Z,1.20
2022-11-17T20:26:42.958Z,1.30
2022-11-17T20:29:11.579Z,3.60
2022-11-17T20:31:40.185Z,2.23
2022-11-17T20:34:11.991Z,1.83
2022-11-17T20:36:40.666Z,1.90
2022-11-17T20:39:09.331Z,1.30
2022-11-17T20:41:39.377Z,5.37
2022-11-17T20:44:23.589Z,3.47
2022-11-17T20:46:52.838Z,2.57
2022-11-17T20:49:21.847Z,3.70
2022-11-17T20:51:50.541Z,3.57
2022-11-17T20:54:19.781Z,0.80
2022-11-17T20:56:49.799Z,3.27
2022-11-17T20:59:20.265Z,2.97
2022-11-17T21:01:50.414Z,5.40
2022-11-17T21:04:19.060Z,4.60
2022-11-17T21:06:47.706Z,6.40
2022-11-17T21:09:16.500Z,3.40
2022-11-17T21:12:00.258Z,1.70
2022-11-17T21:14:30.655Z,2.63
2022-11-17T21:17:01.037Z,2.27
2022-11-17T21:19:31.138Z,1.07
2022-11-17T21:22:01.961Z,2.77
2022-11-17T21:24:30.610Z,2.27
2022-11-17T21:26:59.336Z,2.45
2022-11-17T21:29:28.304Z,3.53
2022-11-17T21:31:58.390Z,3.90
2022-11-17T21:34:27.009Z,2.93
2022-11-17T21:36:55.656Z,5.37
2022-11-17T21:39:24.617Z,5.93
2022-11-17T21:41:53.354Z,6.87
2022-11-17T21:44:22.013Z,6.13
2022-11-17T21:46:50.675Z,6.43
2022-11-17T21:49:20.666Z,4.80
2022-11-17T21:51:49.336Z,2.77
2022-11-17T21:54:18.053Z,5.50
2022-11-17T21:56:46.733Z,7.47
2022-11-17T21:59:17.082Z,8.40
2022-11-17T22:01:45.875Z,7.60
2022-11-17T22:04:15.820Z,6.00
2022-11-17T22:06:46.456Z,5.80
2022-11-17T22:09:15.434Z,6.60
2022-11-17T22:11:44.299Z,1.73
2022-11-17T22:14:14.398Z,2.80
2022-11-17T22:16:44.454Z,4.17
2022-11-17T22:19:13.968Z,2.30
2022-11-17T22:21:43.306Z,4.27
2022-11-17T22:24:14.071Z,4.93
2022-11-17T22:26:44.059Z,3.50
2022-11-17T22:29:14.957Z,5.10
2022-11-17T22:31:44.136Z,3.87
2022-11-17T22:34:13.090Z,5.17
2022-11-17T22:36:41.907Z,3.93
2022-11-17T22:39:10.511Z,2.80
2022-11-17T22:41:40.809Z,2.20
2022-11-17T22:44:13.422Z,4.60
2022-11-17T22:46:43.140Z,1.20
2022-11-17T22:49:11.981Z,1.80
2022-11-17T22:51:54.539Z,3.30
2022-11-17T22:54:23.222Z,1.57
2022-11-17T22:56:53.674Z,3.03
2022-11-17T22:59:23.692Z,1.37
2022-11-17T23:01:52.348Z,3.10
2022-11-17T23:04:21.075Z,1.43
2022-11-17T23:06:50.297Z,3.10
2022-11-17T23:09:19.223Z,2.40
2022-11-17T23:11:49.316Z,0.90
2022-11-17T23:14:19.291Z,3.33
2022-11-17T23:16:47.927Z,2.77
2022-11-17T23:19:16.735Z,2.40
2022-11-17T23:21:45.568Z,1.50
2022-11-17T23:24:14.686Z,3.90
2022-11-17T23:26:43.766Z,2.10
2022-11-17T23:29:12.390Z,3.40
2022-11-17T23:31:42.452Z,1.93
2022-11-17T23:34:12.096Z,2.43
2022-11-17T23:36:40.736Z,4.17
2022-11-17T23:39:09.439Z,2.73
2022-11-17T23:41:38.055Z,3.03
2022-11-17T23:44:06.973Z,1.40
2022-11-17T23:46:35.604Z,2.80
2022-11-17T23:49:05.620Z,4.23
2022-11-17T23:51:34.867Z,3.83
2022-11-17T23:54:03.797Z,2.13
2022-11-17T23:56:33.542Z,5.50
2022-11-17T23:59:02.317Z,1.53
